createdAt,value
2019-02-28T00:01:54.993Z,41.35
2019-02-28T00:04:44.976Z,39.05
2019-02-28T00:07:35.065Z,42.27
2019-02-28T00:10:25.048Z,48.02
2019-02-28T00:13:14.737Z,40.63
2019-02-28T00:16:04.789Z,42.58
2019-02-28T00:18:54.897Z,42.60
2019-02-28T00:21:44.505Z,41.92
2019-02-28T00:24:34.264Z,45.03
2019-02-28T00:27:24.015Z,43.55
2019-02-28T00:30:14.815Z,40.83
2019-02-28T00:33:04.813Z,44.00
2019-02-28T00:35:54.491Z,43.42
2019-02-28T00:38:44.356Z,45.40
2019-02-28T00:41:34.386Z,40.70
2019-02-28T00:44:24.003Z,41.70
2019-02-28T00:47:17.073Z,43.90
2019-02-28T00:50:06.853Z,40.78
2019-02-28T00:52:56.634Z,44.03
2019-02-28T00:55:47.050Z,45.50
2019-02-28T00:58:37.854Z,44.80
2019-02-28T01:01:27.624Z,42.43
2019-02-28T01:04:17.511Z,42.45
2019-02-28T01:07:07.386Z,46.00
2019-02-28T01:09:57.456Z,43.40
2019-02-28T01:12:50.170Z,43.35
2019-02-28T01:15:44.416Z,42.53
2019-02-28T01:18:34.478Z,44.53
2019-02-28T01:21:23.940Z,46.85
2019-02-28T01:24:12.814Z,49.60
2019-02-28T01:27:02.514Z,42.25
2019-02-28T01:29:52.816Z,44.23
2019-02-28T01:32:42.910Z,45.33
2019-02-28T01:35:32.662Z,45.23
2019-02-28T01:38:23.963Z,49.48
2019-02-28T01:41:13.453Z,48.42
2019-02-28T01:44:03.557Z,49.03
2019-02-28T01:46:53.522Z,44.15
2019-02-28T01:49:43.385Z,46.33
2019-02-28T01:52:33.373Z,46.98
2019-02-28T01:55:23.095Z,47.93
2019-02-28T01:58:16.593Z,45.88
2019-02-28T02:01:05.715Z,45.55
2019-02-28T02:03:55.706Z,49.00
2019-02-28T02:06:45.545Z,44.60
2019-02-28T02:09:35.536Z,47.23
2019-02-28T02:12:25.112Z,45.55
2019-02-28T02:15:16.784Z,47.50
2019-02-28T02:18:09.276Z,45.63
2019-02-28T02:21:00.134Z,44.55
2019-02-28T02:23:49.562Z,47.27
2019-02-28T02:26:42.272Z,48.17
2019-02-28T02:29:32.393Z,48.70
2019-02-28T02:32:23.212Z,50.20
2019-02-28T02:35:13.061Z,49.33
2019-02-28T02:38:04.582Z,43.85
2019-02-28T02:40:58.942Z,46.30
2019-02-28T02:43:45.692Z,52.13
2019-02-28T02:46:35.894Z,50.60
2019-02-28T02:49:26.141Z,51.42
2019-02-28T02:52:15.613Z,50.75
2019-02-28T02:55:05.665Z,52.45
2019-02-28T02:57:56.626Z,50.00
2019-02-28T03:00:51.321Z,51.60
2019-02-28T03:03:42.856Z,50.95
2019-02-28T03:06:29.198Z,51.73
2019-02-28T03:09:19.142Z,54.88
2019-02-28T03:12:09.244Z,52.73
2019-02-28T03:14:58.883Z,56.48
2019-02-28T03:17:49.155Z,51.05
2019-02-28T03:20:41.181Z,52.17
2019-02-28T03:23:30.379Z,55.08
2019-02-28T03:26:20.102Z,55.78
2019-02-28T03:29:09.988Z,55.40
2019-02-28T03:31:59.966Z,57.67
2019-02-28T03:34:58.154Z,54.65
2019-02-28T03:37:41.455Z,54.33
2019-02-28T03:40:31.358Z,60.48
2019-02-28T03:43:20.888Z,61.88
2019-02-28T03:46:11.628Z,58.85
2019-02-28T03:49:01.607Z,58.60
2019-02-28T03:51:51.518Z,62.50
2019-02-28T03:54:42.163Z,62.25
2019-02-28T03:57:33.397Z,62.73
2019-02-28T04:00:23.178Z,57.03
2019-02-28T04:03:13.459Z,57.65
2019-02-28T04:06:04.981Z,58.75
2019-02-28T04:08:55.033Z,64.95
2019-02-28T04:11:44.660Z,60.10
2019-02-28T04:14:34.342Z,60.98
2019-02-28T04:17:30.120Z,60.65
2019-02-28T04:20:15.993Z,59.90
2019-02-28T04:23:05.594Z,62.90
2019-02-28T04:25:56.775Z,65.00
2019-02-28T04:28:53.518Z,62.85
2019-02-28T04:31:38.283Z,68.47
2019-02-28T04:34:27.892Z,64.77
2019-02-28T04:37:17.686Z,65.97
2019-02-28T04:40:07.695Z,66.57
2019-02-28T04:42:57.611Z,66.00
2019-02-28T04:45:47.467Z,66.70
2019-02-28T04:48:37.609Z,67.82
2019-02-28T04:51:27.575Z,67.12
2019-02-28T04:54:17.585Z,65.45
2019-02-28T04:57:07.552Z,65.90
2019-02-28T04:59:57.526Z,66.05
2019-02-28T05:02:47.835Z,64.62
2019-02-28T05:05:38.764Z,66.82
2019-02-28T05:08:28.512Z,69.00
2019-02-28T05:11:18.494Z,71.50
2019-02-28T05:14:08.290Z,69.75
2019-02-28T05:16:58.142Z,65.47
2019-02-28T05:19:47.954Z,66.40
2019-02-28T05:22:37.592Z,72.45
2019-02-28T05:25:28.756Z,68.65
2019-02-28T05:28:18.472Z,63.83
2019-02-28T05:31:08.524Z,70.57
2019-02-28T05:33:58.622Z,68.42
2019-02-28T05:36:48.065Z,69.37
2019-02-28T05:39:38.012Z,65.05
2019-02-28T05:42:27.705Z,71.28
2019-02-28T05:45:17.506Z,62.40
2019-02-28T05:48:07.196Z,68.60
2019-02-28T05:50:57.373Z,62.58
2019-02-28T05:53:47.112Z,71.60
2019-02-28T05:56:37.045Z,68.00
2019-02-28T05:59:27.557Z,66.70
2019-02-28T06:02:18.953Z,67.32
2019-02-28T06:05:12.007Z,62.93
2019-02-28T06:08:03.291Z,63.78
2019-02-28T06:10:51.845Z,65.03
2019-02-28T06:13:41.312Z,58.87
2019-02-28T06:16:30.997Z,60.80
2019-02-28T06:19:21.081Z,59.50
2019-02-28T06:22:11.067Z,65.75
2019-02-28T06:25:00.871Z,63.10
2019-02-28T06:27:50.937Z,58.15
2019-02-28T06:30:42.640Z,58.33
2019-02-28T06:33:33.579Z,60.73
2019-02-28T06:36:25.738Z,54.05
2019-02-28T06:39:14.828Z,52.40
2019-02-28T06:42:04.333Z,57.88
2019-02-28T06:44:53.992Z,53.63
2019-02-28T06:47:47.996Z,58.17
2019-02-28T06:50:35.126Z,55.12
2019-02-28T06:53:24.886Z,54.77
2019-02-28T06:56:16.333Z,53.68
2019-02-28T06:59:06.026Z,52.15
2019-02-28T07:01:57.554Z,53.40
2019-02-28T07:04:49.531Z,51.53
2019-02-28T07:07:38.774Z,55.03
2019-02-28T07:10:28.838Z,55.10
2019-02-28T07:13:18.927Z,48.58
2019-02-28T07:16:09.965Z,51.30
2019-02-28T07:19:00.216Z,43.33
2019-02-28T07:21:49.757Z,43.68
2019-02-28T07:24:39.135Z,39.15
2019-02-28T07:27:29.823Z,40.98
2019-02-28T07:30:19.699Z,38.63
2019-02-28T07:33:10.571Z,34.10
2019-02-28T07:36:00.602Z,37.53
2019-02-28T07:38:53.352Z,31.85
2019-02-28T07:41:43.455Z,33.25
2019-02-28T07:44:33.084Z,32.95
2019-02-28T07:47:25.356Z,34.13
2019-02-28T07:50:14.833Z,29.23
2019-02-28T07:53:05.515Z,28.25
2019-02-28T07:55:56.945Z,23.65
2019-02-28T07:58:46.655Z,26.60
2019-02-28T08:01:36.223Z,27.60
2019-02-28T08:04:26.078Z,23.50
2019-02-28T08:07:15.953Z,21.05
2019-02-28T08:10:07.658Z,21.27
2019-02-28T08:12:57.323Z,20.95
2019-02-28T08:15:47.464Z,19.20
2019-02-28T08:18:37.431Z,21.57
2019-02-28T08:21:27.223Z,22.98
2019-02-28T08:24:17.184Z,19.52
2019-02-28T08:27:07.092Z,21.75
2019-02-28T08:29:56.955Z,17.90
2019-02-28T08:32:47.164Z,19.45
2019-02-28T08:35:37.875Z,17.23
2019-02-28T08:38:30.067Z,18.87
2019-02-28T08:41:19.059Z,18.05
2019-02-28T08:44:09.135Z,19.30
2019-02-28T08:46:58.911Z,20.52
2019-02-28T08:49:48.497Z,18.90
2019-02-28T08:52:41.207Z,21.27
2019-02-28T08:55:29.480Z,17.60
2019-02-28T08:58:19.652Z,15.55
2019-02-28T09:01:09.469Z,15.72
2019-02-28T09:04:04.101Z,16.85
2019-02-28T09:06:51.052Z,16.25
2019-02-28T09:09:40.832Z,18.10
2019-02-28T09:12:33.350Z,17.40
2019-02-28T09:15:22.553Z,17.20
2019-02-28T09:18:12.145Z,15.15
2019-02-28T09:21:01.431Z,18.17
2019-02-28T09:23:51.021Z,16.95
2019-02-28T09:26:40.933Z,18.20
2019-02-28T09:29:30.935Z,15.20
2019-02-28T09:32:20.383Z,16.95
2019-02-28T09:35:13.822Z,16.17
2019-02-28T09:38:06.328Z,15.38
2019-02-28T09:40:53.437Z,16.73
2019-02-28T09:43:43.216Z,19.45
2019-02-28T09:46:32.986Z,17.02
2019-02-28T09:49:22.933Z,17.82
2019-02-28T09:52:12.979Z,18.48
2019-02-28T09:55:02.623Z,17.10
2019-02-28T09:57:54.765Z,16.62
2019-02-28T10:00:46.503Z,17.75
2019-02-28T10:03:34.953Z,16.60
2019-02-28T10:06:24.649Z,18.40
2019-02-28T10:09:16.213Z,16.17
2019-02-28T10:12:07.810Z,16.82
2019-02-28T10:15:00.642Z,17.98
2019-02-28T10:17:49.285Z,17.65
2019-02-28T10:20:40.104Z,17.35
2019-02-28T10:23:29.843Z,18.95
2019-02-28T10:26:20.064Z,15.98
2019-02-28T10:29:09.828Z,18.45
2019-02-28T10:31:59.461Z,15.75
2019-02-28T10:34:49.161Z,16.37
2019-02-28T10:37:39.284Z,15.30
2019-02-28T10:40:28.826Z,15.13
2019-02-28T10:43:18.704Z,15.55
2019-02-28T10:46:08.304Z,17.00
2019-02-28T10:48:58.286Z,14.75
2019-02-28T10:51:49.785Z,16.07
2019-02-28T10:54:39.564Z,14.58
2019-02-28T10:57:29.148Z,15.10
2019-02-28T11:00:25.574Z,14.83
2019-02-28T11:03:15.884Z,15.32
2019-02-28T11:06:05.671Z,14.93
2019-02-28T11:08:55.315Z,16.90
2019-02-28T11:11:46.284Z,15.63
2019-02-28T11:14:38.710Z,14.28
2019-02-28T11:17:26.715Z,15.68
2019-02-28T11:20:22.168Z,14.73
2019-02-28T11:23:07.897Z,12.58
2019-02-28T11:25:57.611Z,13.53
2019-02-28T11:28:47.351Z,11.60
2019-02-28T11:31:38.084Z,16.07
2019-02-28T11:34:27.396Z,13.93
2019-02-28T11:37:17.084Z,14.98
2019-02-28T11:40:08.540Z,14.35
2019-02-28T11:43:02.851Z,15.63
2019-02-28T11:45:51.104Z,13.98
2019-02-28T11:48:40.664Z,13.60
2019-02-28T11:51:30.377Z,11.33
2019-02-28T11:54:20.521Z,12.20
2019-02-28T11:57:10.852Z,13.75
2019-02-28T12:00:01.526Z,11.50
2019-02-28T12:02:56.743Z,12.13
2019-02-28T12:05:50.151Z,11.95
2019-02-28T12:08:37.275Z,9.78
2019-02-28T12:11:27.515Z,10.43
2019-02-28T12:14:22.887Z,11.83
2019-02-28T12:17:15.066Z,11.70
2019-02-28T12:20:05.519Z,11.68
2019-02-28T12:22:55.961Z,9.15
2019-02-28T12:25:46.143Z,9.20
2019-02-28T12:28:38.279Z,8.10
2019-02-28T12:31:28.106Z,9.55
2019-02-28T12:34:18.142Z,10.88
2019-02-28T12:37:08.338Z,7.12
2019-02-28T12:40:00.388Z,6.72
2019-02-28T12:42:50.615Z,7.33
2019-02-28T12:45:40.834Z,9.05
2019-02-28T12:48:31.301Z,6.78
2019-02-28T12:51:24.971Z,7.17
2019-02-28T12:54:15.025Z,7.70
2019-02-28T12:57:05.066Z,7.03
2019-02-28T12:59:55.238Z,9.80
2019-02-28T13:02:47.106Z,6.58
2019-02-28T13:05:36.964Z,8.95
2019-02-28T13:08:26.847Z,10.00
2019-02-28T13:11:16.955Z,8.78
2019-02-28T13:14:06.879Z,10.88
2019-02-28T13:16:57.569Z,7.92
2019-02-28T13:19:48.214Z,6.78
2019-02-28T13:22:37.976Z,6.87
2019-02-28T13:25:28.061Z,7.60
2019-02-28T13:28:22.430Z,5.65
2019-02-28T13:31:08.982Z,6.40
2019-02-28T13:34:01.119Z,5.75
2019-02-28T13:36:54.264Z,4.62
2019-02-28T13:39:42.185Z,5.05
2019-02-28T13:42:31.987Z,5.75
2019-02-28T13:45:23.752Z,4.20
2019-02-28T13:48:13.298Z,4.40
2019-02-28T13:51:07.999Z,4.33
2019-02-28T13:53:55.127Z,4.40
2019-02-28T13:56:45.260Z,3.20
2019-02-28T13:59:34.888Z,4.67
2019-02-28T14:02:26.268Z,3.65
2019-02-28T14:05:16.241Z,3.00
2019-02-28T14:08:10.208Z,4.62
2019-02-28T14:10:57.048Z,4.25
2019-02-28T14:13:47.060Z,3.50
2019-02-28T14:16:37.028Z,3.62
2019-02-28T14:19:27.046Z,4.20
2019-02-28T14:22:16.546Z,3.70
2019-02-28T14:25:07.301Z,3.30
2019-02-28T14:28:00.258Z,3.65
2019-02-28T14:30:48.780Z,4.00
2019-02-28T14:33:38.515Z,3.72
2019-02-28T14:36:28.519Z,3.27
2019-02-28T14:39:19.651Z,3.83
2019-02-28T14:42:09.913Z,3.70
2019-02-28T14:44:59.522Z,3.67
2019-02-28T14:47:56.999Z,4.40
2019-02-28T14:50:42.230Z,4.58
2019-02-28T14:53:31.561Z,3.25
2019-02-28T14:56:21.491Z,4.15
2019-02-28T14:59:11.300Z,3.10
2019-02-28T15:02:01.250Z,3.35
2019-02-28T15:04:51.105Z,3.00
2019-02-28T15:07:42.043Z,3.20
2019-02-28T15:10:36.128Z,4.33
2019-02-28T15:13:26.326Z,2.77
2019-02-28T15:16:16.013Z,3.33
2019-02-28T15:19:05.878Z,2.35
2019-02-28T15:21:55.977Z,2.77
2019-02-28T15:24:46.802Z,3.00
2019-02-28T15:27:39.015Z,2.65
2019-02-28T15:30:30.559Z,3.25
2019-02-28T15:33:20.516Z,3.70
2019-02-28T15:36:10.393Z,3.45
2019-02-28T15:39:00.352Z,3.20
2019-02-28T15:41:51.257Z,3.62
2019-02-28T15:44:41.165Z,3.35
2019-02-28T15:47:31.275Z,4.75
2019-02-28T15:50:20.781Z,3.37
2019-02-28T15:53:11.430Z,3.60
2019-02-28T15:56:01.893Z,5.08
2019-02-28T15:58:52.655Z,3.62
2019-02-28T16:01:42.121Z,3.30
2019-02-28T16:04:31.658Z,4.70
2019-02-28T16:07:21.331Z,3.58
2019-02-28T16:10:13.148Z,4.72
2019-02-28T16:13:02.940Z,3.92
2019-02-28T16:15:52.731Z,4.00
2019-02-28T16:18:44.055Z,4.92
2019-02-28T16:21:33.582Z,3.60
2019-02-28T16:24:23.426Z,3.37
2019-02-28T16:27:13.272Z,3.85
2019-02-28T16:30:03.286Z,4.08
2019-02-28T16:32:54.275Z,4.78
2019-02-28T16:35:46.674Z,5.80
2019-02-28T16:38:35.297Z,3.70
2019-02-28T16:41:25.266Z,3.15
2019-02-28T16:44:14.919Z,4.47
2019-02-28T16:47:05.324Z,4.65
2019-02-28T16:49:54.976Z,3.90
2019-02-28T16:52:44.896Z,2.87
2019-02-28T16:55:34.438Z,4.90
2019-02-28T16:58:23.958Z,4.08
2019-02-28T17:01:13.895Z,3.10
2019-02-28T17:04:03.474Z,3.50
2019-02-28T17:06:55.032Z,3.30
2019-02-28T17:09:44.945Z,5.85
2019-02-28T17:13:03.126Z,2.58
2019-02-28T17:16:08.984Z,3.60
2019-02-28T17:18:58.886Z,3.40
2019-02-28T17:21:52.221Z,3.42
2019-02-28T17:24:40.270Z,4.35
2019-02-28T17:27:41.126Z,3.75
2019-02-28T17:30:47.479Z,3.25
2019-02-28T17:33:37.874Z,3.55
2019-02-28T17:36:27.577Z,4.08
2019-02-28T17:39:17.424Z,7.80
2019-02-28T17:42:09.020Z,28.00
2019-02-28T17:45:15.618Z,4.75
2019-02-28T17:48:38.696Z,3.60
2019-02-28T17:51:58.586Z,11.30
2019-02-28T17:55:11.055Z,7.50
2019-02-28T17:58:32.637Z,7.80
2019-02-28T18:02:12.357Z,4.55
2019-02-28T18:05:14.145Z,4.67
2019-02-28T18:08:26.019Z,4.60
2019-02-28T18:11:39.867Z,4.60
2019-02-28T18:14:53.810Z,6.80
2019-02-28T18:18:19.058Z,4.37
2019-02-28T18:21:41.064Z,4.85
2019-02-28T18:25:29.586Z,4.35
2019-02-28T18:28:54.865Z,3.90
2019-02-28T18:31:44.625Z,5.30
2019-02-28T18:34:36.192Z,6.37
2019-02-28T18:37:25.721Z,3.70
2019-02-28T18:40:15.534Z,3.87
2019-02-28T18:43:05.319Z,3.87
2019-02-28T18:45:56.828Z,4.30
2019-02-28T18:48:46.856Z,4.12
2019-02-28T18:51:37.494Z,5.00
2019-02-28T18:54:28.368Z,7.17
2019-02-28T18:57:17.852Z,3.92
2019-02-28T19:00:10.227Z,6.33
2019-02-28T19:03:00.024Z,4.50
2019-02-28T19:05:49.840Z,6.67
2019-02-28T19:08:39.722Z,3.77
2019-02-28T19:11:29.567Z,4.35
2019-02-28T19:14:19.480Z,3.98
2019-02-28T19:17:09.468Z,4.53
2019-02-28T19:19:59.466Z,6.42
2019-02-28T19:22:49.155Z,6.03
2019-02-28T19:25:38.878Z,3.50
2019-02-28T19:28:28.815Z,3.87
2019-02-28T19:31:18.772Z,3.95
2019-02-28T19:34:08.658Z,3.85
2019-02-28T19:36:58.302Z,6.20
2019-02-28T19:39:47.913Z,4.72
2019-02-28T19:42:40.644Z,7.25
2019-02-28T19:45:30.747Z,4.70
2019-02-28T19:48:20.371Z,4.12
2019-02-28T19:51:10.508Z,4.50
2019-02-28T19:54:00.115Z,4.90
2019-02-28T19:56:49.575Z,5.10
2019-02-28T19:59:39.489Z,7.12
2019-02-28T20:02:29.193Z,5.35
2019-02-28T20:05:18.792Z,4.42
2019-02-28T20:08:08.329Z,4.95
2019-02-28T20:10:58.262Z,4.95
2019-02-28T20:13:47.631Z,5.95
2019-02-28T20:16:37.802Z,5.53
2019-02-28T20:19:27.526Z,4.37
2019-02-28T20:22:17.891Z,4.33
2019-02-28T20:25:10.193Z,5.53
2019-02-28T20:28:01.743Z,5.75
2019-02-28T20:30:51.335Z,5.90
2019-02-28T20:33:41.205Z,4.85
2019-02-28T20:36:30.876Z,4.83
2019-02-28T20:39:20.764Z,5.25
2019-02-28T20:42:11.051Z,4.10
2019-02-28T20:45:00.744Z,6.00
2019-02-28T20:47:51.744Z,4.03
2019-02-28T20:50:42.352Z,6.10
2019-02-28T20:53:32.116Z,5.28
2019-02-28T20:56:22.075Z,5.58
2019-02-28T20:59:11.498Z,5.90
2019-02-28T21:02:01.472Z,7.78
2019-02-28T21:04:52.074Z,4.33
2019-02-28T21:07:41.666Z,5.58
2019-02-28T21:10:31.599Z,4.35
2019-02-28T21:13:21.292Z,6.05
2019-02-28T21:16:12.098Z,7.17
2019-02-28T21:19:01.905Z,5.92
2019-02-28T21:21:52.154Z,3.55
2019-02-28T21:24:41.855Z,6.08
2019-02-28T21:27:31.600Z,5.30
2019-02-28T21:30:22.429Z,3.80
2019-02-28T21:33:11.987Z,4.28
2019-02-28T21:36:03.134Z,4.53
2019-02-28T21:38:52.788Z,3.80
2019-02-28T21:41:42.684Z,5.47
2019-02-28T21:44:32.580Z,3.80
2019-02-28T21:47:22.485Z,4.25
2019-02-28T21:50:13.311Z,3.77
2019-02-28T21:53:03.944Z,3.08
2019-02-28T21:55:56.947Z,3.58
2019-02-28T21:58:46.875Z,3.60
2019-02-28T22:01:36.584Z,3.20
2019-02-28T22:04:26.081Z,2.98
2019-02-28T22:07:16.544Z,6.40
2019-02-28T22:10:07.006Z,3.02
2019-02-28T22:12:57.191Z,3.10
2019-02-28T22:15:47.405Z,3.65
2019-02-28T22:18:36.661Z,3.75
2019-02-28T22:21:26.348Z,3.30
2019-02-28T22:24:16.533Z,3.83
2019-02-28T22:27:05.984Z,5.12
2019-02-28T22:29:55.972Z,3.30
2019-02-28T22:32:49.812Z,4.22
2019-02-28T22:35:42.941Z,3.65
2019-02-28T22:38:32.684Z,3.37
2019-02-28T22:41:22.603Z,3.65
2019-02-28T22:44:12.169Z,2.50
2019-02-28T22:47:02.059Z,2.98
2019-02-28T22:49:51.571Z,2.58
2019-02-28T22:52:41.392Z,2.90
2019-02-28T22:55:31.482Z,4.08
2019-02-28T22:58:21.124Z,2.67
2019-02-28T23:01:14.792Z,3.00
2019-02-28T23:04:05.014Z,3.02
2019-02-28T23:06:54.814Z,2.47
2019-02-28T23:09:44.865Z,3.72
2019-02-28T23:12:35.594Z,3.12
2019-02-28T23:15:26.182Z,2.75
2019-02-28T23:18:16.444Z,2.60
2019-02-28T23:21:05.955Z,2.58
2019-02-28T23:23:55.755Z,2.30
2019-02-28T23:27:13.352Z,3.00
2019-02-28T23:30:50.136Z,2.83
2019-02-28T23:33:39.709Z,2.77
2019-02-28T23:36:30.096Z,3.08
2019-02-28T23:39:19.782Z,3.10
2019-02-28T23:42:12.873Z,2.50
2019-02-28T23:45:02.523Z,2.50
2019-02-28T23:47:52.426Z,2.72
2019-02-28T23:50:42.085Z,2.45
2019-02-28T23:53:31.750Z,2.42
2019-02-28T23:56:21.765Z,3.22
2019-02-28T23:59:11.591Z,2.90
